Time;durP1;ratioP1;P1;durP2;ratioP2;P2;SDS_P1;SDS_P2;PMS_P1;PMS_P2;Temp;Humidity;BMP_temperature;BMP_pressure;BME280_temperature;BME280_humidity;BME280_pressure;Samples;Min_cycle;Max_cycle;Signal;HPM_P1;HPM_P2
2021/08/06 00:00:58;;;;;;;;;;;;;;;22.18;69.88;95924.70;223506;259;99013;-57
2021/08/06 00:01:59;;;;;;;;;;;;;;;22.18;69.85;95927.45;223707;259;98941;-52
2021/08/06 00:03:01;;;;;;;;;;;;;;;22.19;69.78;95929.05;223436;259;98749;-55
2021/08/06 00:04:02;;;;;;;;;;;;;;;22.16;70.00;95927.03;223249;259;99456;-57
2021/08/06 00:05:03;;;;;;;;;;;;;;;22.17;69.98;95930.00;223655;259;99428;-56
2021/08/06 00:06:05;;;;;;;;;;;;;;;22.16;69.96;95927.03;223255;259;98960;-54
2021/08/06 00:07:06;;;;;;;;;;;;;;;22.10;70.18;95925.71;224001;259;98959;-55
2021/08/06 00:08:07;;;;;;;;;;;;;;;22.10;70.33;95922.95;223535;259;98949;-57
2021/08/06 00:09:14;;;;;;;;;;;;;;;22.10;70.28;95924.33;224349;259;98952;-55
2021/08/06 00:10:12;;;;;;;;;;;;;;;22.06;70.35;95918.75;224029;258;166840;-60
2021/08/06 00:11:13;;;;;;;;;;;;;;;22.10;70.32;95914.67;224036;259;193759;-59
2021/08/06 00:12:15;;;;;;;;;;;;;;;22.05;70.29;95921.27;223455;259;98004;-58
2021/08/06 00:13:16;;;;;;;;;;;;;;;22.00;70.46;95913.27;224152;259;98937;-59
2021/08/06 00:14:18;;;;;;;;;;;;;;;22.01;70.39;95916.27;224375;259;98944;-56
2021/08/06 00:15:19;;;;;;;;;;;;;;;22.01;70.53;95918.20;224252;259;97953;-57
2021/08/06 00:16:20;;;;;;;;;;;;;;;22.00;70.44;95908.33;223216;259;97013;-54
2021/08/06 00:17:22;;;;;;;;;;;;;;;22.01;70.41;95909.92;223440;259;98967;-58
2021/08/06 00:18:23;;;;;;;;;;;;;;;21.99;70.38;95913.63;223261;259;193927;-58
2021/08/06 00:19:24;;;;;;;;;;;;;;;21.99;70.43;95909.48;223689;259;98963;-55
2021/08/06 00:20:26;;;;;;;;;;;;;;;22.00;70.50;95908.33;223448;259;98025;-57
2021/08/06 00:21:27;;;;;;;;;;;;;;;21.97;70.49;95909.86;223680;259;99893;-59
2021/08/06 00:22:28;;;;;;;;;;;;;;;21.98;70.45;95903.75;223450;259;98805;-59
2021/08/06 00:23:30;;;;;;;;;;;;;;;21.97;70.53;95904.34;223585;259;98924;-55
2021/08/06 00:24:31;;;;;;;;;;;;;;;21.95;70.55;95895.05;223438;259;98936;-58
2021/08/06 00:25:32;;;;;;;;;;;;;;;21.98;70.56;95903.75;223096;259;192780;-55
2021/08/06 00:26:34;;;;;;;;;;;;;;;21.92;70.67;95899.13;223483;259;97989;-56
2021/08/06 00:27:35;;;;;;;;;;;;;;;21.92;70.70;95898.55;223411;258;98935;-59
2021/08/06 00:28:36;;;;;;;;;;;;;;;21.90;70.67;95896.73;223674;259;100223;-56
2021/08/06 00:29:38;;;;;;;;;;;;;;;21.87;70.82;95893.30;223450;259;98956;-57
2021/08/06 00:30:39;;;;;;;;;;;;;;;21.89;70.79;95888.22;223690;259;97983;-56
2021/08/06 00:31:40;;;;;;;;;;;;;;;21.89;70.73;95893.73;223410;259;98010;-57
2021/08/06 00:32:42;;;;;;;;;;;;;;;21.88;70.92;95898.23;223403;259;97043;-53
2021/08/06 00:33:43;;;;;;;;;;;;;;;21.84;71.02;95889.10;223408;259;98944;-56
2021/08/06 00:34:44;;;;;;;;;;;;;;;21.83;71.00;95889.68;223462;259;98949;-57
2021/08/06 00:35:46;;;;;;;;;;;;;;;21.83;70.91;95889.68;223623;259;97979;-60
2021/08/06 00:36:47;;;;;;;;;;;;;;;21.85;71.00;95890.11;223453;259;97953;-58
2021/08/06 00:37:48;;;;;;;;;;;;;;;21.86;70.97;95889.53;223667;258;98005;-56
2021/08/06 00:38:50;;;;;;;;;;;;;;;21.82;71.00;95885.33;223442;259;98912;-54
2021/08/06 00:39:51;;;;;;;;;;;;;;;21.82;70.95;95891.42;223335;259;98948;-54
2021/08/06 00:40:52;;;;;;;;;;;;;;;21.81;71.07;95890.63;223652;259;98981;-58
2021/08/06 00:41:54;;;;;;;;;;;;;;;21.83;71.06;95888.30;223401;259;98006;-53
2021/08/06 00:42:55;;;;;;;;;;;;;;;21.80;71.09;95889.59;223670;259;97037;-56
2021/08/06 00:43:56;;;;;;;;;;;;;;;21.79;71.14;95883.86;223277;259;98944;-60
2021/08/06 00:44:58;;;;;;;;;;;;;;;21.79;71.09;95886.03;223617;259;98965;-58
2021/08/06 00:45:59;;;;;;;;;;;;;;;21.78;71.18;95887.19;223269;259;99001;-58
2021/08/06 00:47:01;;;;;;;;;;;;;;;21.80;71.18;95886.83;223175;259;193108;-56
2021/08/06 00:48:02;;;;;;;;;;;;;;;21.78;71.17;95885.81;223608;258;98094;-58
2021/08/06 00:49:03;;;;;;;;;;;;;;;21.80;71.08;95884.90;223447;259;100217;-60
2021/08/06 00:50:05;;;;;;;;;;;;;;;21.78;71.20;95893.30;223612;259;98971;-54
2021/08/06 00:51:06;;;;;;;;;;;;;;;21.77;71.22;95886.98;223449;259;98840;-57
2021/08/06 00:52:07;;;;;;;;;;;;;;;21.76;71.26;95889.52;223658;259;98952;-55
2021/08/06 00:53:09;;;;;;;;;;;;;;;21.74;71.26;95895.98;223392;259;98007;-53
2021/08/06 00:54:10;;;;;;;;;;;;;;;21.74;71.31;95894.61;223214;259;97952;-57
2021/08/06 00:55:11;;;;;;;;;;;;;;;21.73;71.34;95893.02;223583;259;98022;-55
2021/08/06 00:56:13;;;;;;;;;;;;;;;21.73;71.36;95893.02;223435;259;98977;-58
2021/08/06 00:57:14;;;;;;;;;;;;;;;21.72;71.32;95894.17;223542;259;98947;-59
2021/08/06 00:58:15;;;;;;;;;;;;;;;21.71;71.36;95889.82;223667;259;100616;-56
2021/08/06 00:59:17;;;;;;;;;;;;;;;21.73;71.37;95885.31;224003;259;98031;-55
2021/08/06 01:00:18;;;;;;;;;;;;;;;21.73;71.31;95893.02;224008;259;97913;-59
2021/08/06 01:01:20;;;;;;;;;;;;;;;21.74;71.32;95885.53;224102;259;98030;-56
2021/08/06 01:02:21;;;;;;;;;;;;;;;21.74;71.35;95884.95;224176;259;98933;-55
2021/08/06 01:03:23;;;;;;;;;;;;;;;21.73;71.44;95893.02;224104;259;98929;-59
2021/08/06 01:04:24;;;;;;;;;;;;;;;21.75;71.44;95889.30;224369;259;98056;-57
2021/08/06 01:05:25;;;;;;;;;;;;;;;21.74;71.34;95887.72;223247;259;98937;-54
2021/08/06 01:06:27;;;;;;;;;;;;;;;21.69;71.47;95884.42;224398;259;98965;-56
2021/08/06 01:07:28;;;;;;;;;;;;;;;21.65;71.68;95887.13;224028;259;195668;-58
2021/08/06 01:08:29;;;;;;;;;;;;;;;21.65;71.62;95885.74;224100;259;193844;-59
2021/08/06 01:09:31;;;;;;;;;;;;;;;21.66;71.66;95881.82;224381;259;98920;-57
2021/08/06 01:10:33;;;;;;;;;;;;;;;21.66;71.52;95881.82;224198;259;98894;-58
2021/08/06 01:11:34;;;;;;;;;;;;;;;21.69;71.50;95883.05;224383;259;99035;-59
2021/08/06 01:12:35;;;;;;;;;;;;;;;21.67;71.55;95883.41;224159;259;97955;-57
2021/08/06 01:13:37;;;;;;;;;;;;;;;21.66;71.51;95877.69;224289;259;98013;-56
2021/08/06 01:14:38;;;;;;;;;;;;;;;21.68;71.42;95873.98;224152;259;99216;-56
2021/08/06 01:15:39;;;;;;;;;;;;;;;21.68;71.41;95876.73;224090;259;191951;-58
2021/08/06 01:16:41;;;;;;;;;;;;;;;21.66;71.56;95875.72;224131;259;98975;-56
2021/08/06 01:17:42;;;;;;;;;;;;;;;21.69;71.46;95876.16;224202;259;98918;-57
2021/08/06 01:18:44;;;;;;;;;;;;;;;21.66;71.51;95873.55;224408;259;99078;-55
2021/08/06 01:19:45;;;;;;;;;;;;;;;21.65;71.51;95873.33;224193;259;99079;-54
2021/08/06 01:20:46;;;;;;;;;;;;;;;21.67;71.51;95876.52;224443;259;98981;-59
2021/08/06 01:21:48;;;;;;;;;;;;;;;21.66;71.46;95872.17;224208;259;98738;-55
2021/08/06 01:22:49;;;;;;;;;;;;;;;21.64;71.51;95871.73;224087;259;194108;-53
2021/08/06 01:23:50;;;;;;;;;;;;;;;21.63;71.54;95877.04;224218;259;98985;-54
2021/08/06 01:24:52;;;;;;;;;;;;;;;21.66;71.45;95875.72;224162;259;99414;-58
2021/08/06 01:25:53;;;;;;;;;;;;;;;21.64;71.37;95876.67;224413;259;99069;-54
2021/08/06 01:26:55;;;;;;;;;;;;;;;21.64;71.52;95872.53;224168;259;98927;-52
2021/08/06 01:27:56;;;;;;;;;;;;;;;21.62;71.50;95875.44;224417;259;98976;-49
2021/08/06 01:28:58;;;;;;;;;;;;;;;21.60;71.65;95877.77;224079;259;194854;-53
2021/08/06 01:29:59;;;;;;;;;;;;;;;21.59;71.63;95880.31;224125;259;194346;-55
2021/08/06 01:31:00;;;;;;;;;;;;;;;21.57;71.77;95889.50;224387;259;98936;-59
2021/08/06 01:32:02;;;;;;;;;;;;;;;21.54;71.83;95886.89;224187;259;97942;-49
2021/08/06 01:33:03;;;;;;;;;;;;;;;21.56;71.81;95887.91;224380;259;97498;-55
2021/08/06 01:34:05;;;;;;;;;;;;;;;21.56;71.81;95896.97;224124;259;99451;-57
2021/08/06 01:35:06;;;;;;;;;;;;;;;21.56;71.79;95889.28;224450;259;98948;-56
2021/08/06 01:36:07;;;;;;;;;;;;;;;21.55;71.72;95890.44;224195;259;98995;-57
2021/08/06 01:37:08;;;;;;;;;;;;;;;21.54;71.72;95891.60;224107;259;193975;-57
2021/08/06 01:38:10;;;;;;;;;;;;;;;21.54;71.84;95890.23;224357;259;98032;-53
2021/08/06 01:39:11;;;;;;;;;;;;;;;21.55;71.72;95890.44;224220;259;98894;-56
2021/08/06 01:40:13;;;;;;;;;;;;;;;21.56;71.80;95893.41;224482;259;98923;-58
2021/08/06 01:41:14;;;;;;;;;;;;;;;21.59;71.61;95894.09;224067;258;98122;-58
2021/08/06 01:42:15;;;;;;;;;;;;;;;21.58;71.58;95899.36;223824;259;97997;-59
2021/08/06 01:43:17;;;;;;;;;;;;;;;21.55;71.68;95902.27;224081;259;97064;-57
2021/08/06 01:44:18;;;;;;;;;;;;;;;21.56;71.56;95896.17;223216;259;193481;-57
2021/08/06 01:45:19;;;;;;;;;;;;;;;21.58;71.65;95896.02;223443;259;99004;-60
2021/08/06 01:46:21;;;;;;;;;;;;;;;21.58;71.61;95888.33;223494;259;98011;-55
2021/08/06 01:47:22;;;;;;;;;;;;;;;21.55;71.66;95887.11;224435;259;97399;-56
2021/08/06 01:48:23;;;;;;;;;;;;;;;21.55;71.68;95891.24;224007;259;98390;-52
2021/08/06 01:49:25;;;;;;;;;;;;;;;21.55;71.57;95884.34;224528;259;97112;-59
2021/08/06 01:50:26;;;;;;;;;;;;;;;21.55;71.60;95878.83;223346;259;99025;-56
2021/08/06 01:51:27;;;;;;;;;;;;;;;21.56;71.62;95878.25;223267;259;98909;-55
2021/08/06 01:52:29;;;;;;;;;;;;;;;21.54;71.58;95875.86;224441;259;98962;-54
2021/08/06 01:53:30;;;;;;;;;;;;;;;21.53;71.59;95872.89;223286;259;99095;-53
2021/08/06 01:54:31;;;;;;;;;;;;;;;21.53;71.63;95872.89;223658;259;97979;-57
2021/08/06 01:55:33;;;;;;;;;;;;;;;21.56;71.68;95871.36;223411;259;99042;-55
2021/08/06 01:56:34;;;;;;;;;;;;;;;21.56;71.70;95863.09;223687;259;98828;-52
2021/08/06 01:57:35;;;;;;;;;;;;;;;21.55;71.84;95869.77;223411;258;98906;-57
2021/08/06 01:58:37;;;;;;;;;;;;;;;21.53;71.81;95862.44;223360;259;98959;-55
2021/08/06 01:59:38;;;;;;;;;;;;;;;21.52;71.62;95864.40;223621;259;99034;-56
2021/08/06 02:00:39;;;;;;;;;;;;;;;21.54;71.67;95864.03;223485;259;97963;-56
2021/08/06 02:01:41;;;;;;;;;;;;;;;21.57;71.73;95867.44;223612;259;98988;-56
2021/08/06 02:02:42;;;;;;;;;;;;;;;21.55;71.73;95867.80;223460;259;100222;-58
2021/08/06 02:03:43;;;;;;;;;;;;;;;21.53;71.66;95872.89;223696;259;100178;-59
2021/08/06 02:04:45;;;;;;;;;;;;;;;21.55;71.84;95869.77;222383;260;98955;-55
2021/08/06 02:05:46;;;;;;;;;;;;;;;21.52;71.93;95871.30;221292;261;98885;-58
2021/08/06 02:06:47;;;;;;;;;;;;;;;21.53;71.83;95869.33;220527;262;98948;-56
2021/08/06 02:07:49;;;;;;;;;;;;;;;21.52;71.82;95864.40;220320;261;99462;-58
2021/08/06 02:08:50;;;;;;;;;;;;;;;21.53;71.91;95865.20;220957;262;98939;-55
2021/08/06 02:09:51;;;;;;;;;;;;;;;21.53;71.75;95864.62;220907;262;99212;-58
2021/08/06 02:10:53;;;;;;;;;;;;;;;21.52;71.75;95869.11;221216;262;98926;-53
2021/08/06 02:11:54;;;;;;;;;;;;;;;21.52;71.69;95867.16;220942;262;97993;-56
2021/08/06 02:12:55;;;;;;;;;;;;;;;21.53;71.80;95863.81;220816;262;192948;-57
2021/08/06 02:13:57;;;;;;;;;;;;;;;21.51;71.78;95863.39;220992;262;97947;-54
2021/08/06 02:14:58;;;;;;;;;;;;;;;21.52;71.62;95863.61;220943;262;98927;-60
2021/08/06 02:15:59;;;;;;;;;;;;;;;21.53;71.55;95869.33;221130;262;98956;-58
2021/08/06 02:17:01;;;;;;;;;;;;;;;21.53;71.62;95866.58;220941;262;98016;-57
2021/08/06 02:18:02;;;;;;;;;;;;;;;21.51;71.68;95868.91;220913;261;97950;-56
2021/08/06 02:19:03;;;;;;;;;;;;;;;21.49;71.69;95869.84;221263;262;97667;-55
2021/08/06 02:20:05;;;;;;;;;;;;;;;21.50;71.69;95868.69;220839;262;98000;-57
2021/08/06 02:21:06;;;;;;;;;;;;;;;21.48;71.64;95859.95;221148;262;98986;-57
2021/08/06 02:22:07;;;;;;;;;;;;;;;21.49;71.77;95866.52;220966;262;98979;-56
2021/08/06 02:23:09;;;;;;;;;;;;;;;21.47;71.74;95868.01;221108;262;98013;-54
2021/08/06 02:24:10;;;;;;;;;;;;;;;21.47;71.67;95856.98;220867;262;98004;-52
2021/08/06 02:25:11;;;;;;;;;;;;;;;21.49;71.67;95862.95;221034;262;98012;-55
2021/08/06 02:26:13;;;;;;;;;;;;;;;21.49;71.70;95857.44;220354;262;97101;-54
2021/08/06 02:27:14;;;;;;;;;;;;;;;21.49;71.60;95856.86;220246;262;98926;-54
2021/08/06 02:28:16;;;;;;;;;;;;;;;21.51;71.72;95855.91;220874;261;98951;-57
2021/08/06 02:29:17;;;;;;;;;;;;;;;21.46;71.90;95850.67;221692;262;98009;-58
2021/08/06 02:30:18;;;;;;;;;;;;;;;21.49;71.96;95849.97;221159;262;98002;-58
2021/08/06 02:31:19;;;;;;;;;;;;;;;21.47;71.94;95851.47;220993;262;98048;-58
2021/08/06 02:32:21;;;;;;;;;;;;;;;21.45;71.85;95850.45;222300;260;98999;-54
2021/08/06 02:33:22;;;;;;;;;;;;;;;21.47;72.00;95847.33;220854;262;99431;-56
2021/08/06 02:34:23;;;;;;;;;;;;;;;21.46;71.90;95849.88;220872;262;99434;-56
2021/08/06 02:35:25;;;;;;;;;;;;;;;21.45;71.87;95852.41;220834;260;99441;-59
2021/08/06 02:36:26;;;;;;;;;;;;;;;21.44;71.83;95850.82;220486;262;98005;-57
2021/08/06 02:37:28;;;;;;;;;;;;;;;21.41;71.93;95849.59;220969;262;98018;-59
2021/08/06 02:38:29;;;;;;;;;;;;;;;21.40;72.04;95847.99;220539;262;98981;-54
2021/08/06 02:39:31;;;;;;;;;;;;;;;21.45;72.02;95848.28;221176;262;98937;-57
2021/08/06 02:40:33;;;;;;;;;;;;;;;21.47;71.87;95847.33;221176;262;194666;-58
2021/08/06 02:41:34;;;;;;;;;;;;;;;21.55;71.45;95848.50;220544;262;192608;-49
2021/08/06 02:42:35;;;;;;;;;;;;;;;21.77;70.86;95842.85;221515;261;98038;-50
2021/08/06 02:43:39;;;;;;;;;;;;;;;21.94;71.41;95847.14;222304;261;98945;-61
2021/08/06 02:44:40;;;;;;;;;;;;;;;22.00;71.98;95845.67;221151;262;67265;-52
2021/08/06 02:45:41;;;;;;;;;;;;;;;22.05;72.06;95851.48;220940;262;99862;-57
2021/08/06 02:46:42;;;;;;;;;;;;;;;22.08;71.08;95850.20;220721;262;275103;-58
2021/08/06 02:47:44;;;;;;;;;;;;;;;22.07;70.82;95858.84;220793;261;195714;-62
2021/08/06 02:48:45;;;;;;;;;;;;;;;22.10;70.63;95853.97;220977;262;193972;-57
2021/08/06 02:49:46;;;;;;;;;;;;;;;22.10;72.13;95851.20;222590;260;98965;-55
2021/08/06 02:50:48;;;;;;;;;;;;;;;22.07;71.58;95851.95;220820;262;98938;-53
2021/08/06 02:51:49;;;;;;;;;;;;;;;22.09;71.17;95849.03;221565;262;99474;-58
2021/08/06 02:52:50;;;;;;;;;;;;;;;22.10;70.82;95849.83;220379;262;98923;-56
2021/08/06 02:53:52;;;;;;;;;;;;;;;22.21;70.41;95851.62;221476;262;98869;-62
2021/08/06 02:54:53;;;;;;;;;;;;;;;22.26;70.21;95851.12;221991;260;98964;-57
2021/08/06 02:55:54;;;;;;;;;;;;;;;22.34;70.01;95850.10;220767;262;98973;-53
2021/08/06 02:56:56;;;;;;;;;;;;;;;22.38;69.84;95846.23;221095;262;97883;-55
2021/08/06 02:57:57;;;;;;;;;;;;;;;22.40;69.97;95846.66;220904;260;99120;-55
2021/08/06 02:58:58;;;;;;;;;;;;;;;22.37;69.85;95848.78;221585;262;98774;-55
2021/08/06 03:00:00;;;;;;;;;;;;;;;22.44;69.94;95839.25;221098;262;98951;-54
2021/08/06 03:01:01;;;;;;;;;;;;;;;22.52;69.58;95839.56;221796;262;98970;-56
2021/08/06 03:02:03;;;;;;;;;;;;;;;22.38;69.83;95843.47;221791;262;97996;-58
2021/08/06 03:03:05;;;;;;;;;;;;;;;22.49;69.69;95843.66;221754;262;193462;-58
2021/08/06 03:04:07;;;;;;;;;;;;;;;22.52;69.48;95842.33;221712;262;98929;-56
2021/08/06 03:05:08;;;;;;;;;;;;;;;22.52;69.33;95840.95;221838;262;98957;-54
2021/08/06 03:06:09;;;;;;;;;;;;;;;22.58;69.33;95840.66;222052;262;98938;-57
2021/08/06 03:07:11;;;;;;;;;;;;;;;22.30;72.22;95841.73;222173;260;98938;-55
2021/08/06 03:08:12;;;;;;;;;;;;;;;22.26;71.24;95832.61;221794;262;98859;-59
2021/08/06 03:09:13;;;;;;;;;;;;;;;22.28;70.90;95839.93;220503;262;196630;-56
2021/08/06 03:10:18;;;;;;;;;;;;;;;22.49;70.08;95835.38;221524;262;193854;-56
2021/08/06 03:11:18;;;;;;;;;;;;;;;22.56;69.66;95837.47;221800;262;68608;-55
2021/08/06 03:12:19;;;;;;;;;;;;;;;22.58;69.49;95840.07;220874;262;98847;-55
2021/08/06 03:13:20;;;;;;;;;;;;;;;22.63;69.25;95844.47;222347;261;98959;-57
2021/08/06 03:14:22;;;;;;;;;;;;;;;22.72;69.18;95840.30;222352;260;99436;-59
2021/08/06 03:15:23;;;;;;;;;;;;;;;22.68;68.74;95845.56;221216;261;275973;-60
2021/08/06 03:16:24;;;;;;;;;;;;;;;22.53;69.28;95844.50;221259;261;195692;-56
2021/08/06 03:17:26;;;;;;;;;;;;;;;22.42;69.61;95846.28;221321;260;193993;-63
2021/08/06 03:18:27;;;;;;;;;;;;;;;22.39;69.22;95843.68;222337;261;99475;-63
2021/08/06 03:19:29;;;;;;;;;;;;;;;22.45;69.59;95844.19;221917;261;98920;-62
2021/08/06 03:20:30;;;;;;;;;;;;;;;22.40;69.75;95848.61;222381;261;98960;-62
2021/08/06 03:21:31;;;;;;;;;;;;;;;22.39;69.93;95838.16;222173;261;98933;-61
2021/08/06 03:22:33;;;;;;;;;;;;;;;22.47;69.63;95842.65;222426;261;97967;-63
2021/08/06 03:23:34;;;;;;;;;;;;;;;22.45;69.49;95843.60;222059;261;98025;-63
2021/08/06 03:24:35;;;;;;;;;;;;;;;22.48;69.48;95844.23;222041;261;193122;-62
2021/08/06 03:25:37;;;;;;;;;;;;;;;22.47;69.85;95841.84;222403;261;97948;-61
2021/08/06 03:26:38;;;;;;;;;;;;;;;22.41;70.04;95848.24;222168;261;99081;-60
2021/08/06 03:27:39;;;;;;;;;;;;;;;22.39;69.94;95845.06;222381;261;98938;-62
2021/08/06 03:28:41;;;;;;;;;;;;;;;22.44;69.66;95839.25;222177;261;97973;-65
2021/08/06 03:29:42;;;;;;;;;;;;;;;22.50;69.74;95843.28;222441;261;98039;-65
2021/08/06 03:30:43;;;;;;;;;;;;;;;22.53;69.71;95847.27;222154;261;97991;-63
2021/08/06 03:31:45;;;;;;;;;;;;;;;22.59;69.63;95846.39;222106;261;97984;-65
2021/08/06 03:32:46;;;;;;;;;;;;;;;22.57;69.52;95841.83;222370;261;99038;-66
2021/08/06 03:33:47;;;;;;;;;;;;;;;22.53;69.50;95843.92;222004;261;98945;-67
2021/08/06 03:34:49;;;;;;;;;;;;;;;22.52;69.82;95841.53;220903;256;110600;-63
2021/08/06 03:35:50;;;;;;;;;;;;;;;22.46;70.03;95839.67;220321;263;97923;-65
2021/08/06 03:36:51;;;;;;;;;;;;;;;22.50;69.92;95843.28;220402;264;97992;-65
2021/08/06 03:37:53;;;;;;;;;;;;;;;22.55;69.76;95839.44;220139;262;98008;-65
2021/08/06 03:38:54;;;;;;;;;;;;;;;22.52;69.60;95838.19;220335;263;98999;-63
2021/08/06 03:39:55;;;;;;;;;;;;;;;22.56;69.66;95843.00;220519;263;98958;-65
2021/08/06 03:40:57;;;;;;;;;;;;;;;22.56;69.42;95837.47;220381;263;98950;-65
2021/08/06 03:41:58;;;;;;;;;;;;;;;22.61;69.58;95836.56;220663;263;98962;-65
2021/08/06 03:43:00;;;;;;;;;;;;;;;22.61;69.20;95836.56;220101;263;97991;-66
2021/08/06 03:44:01;;;;;;;;;;;;;;;22.64;69.18;95831.67;220429;263;99063;-62
2021/08/06 03:45:02;;;;;;;;;;;;;;;22.56;68.67;95837.47;220391;263;98960;-61
2021/08/06 03:46:04;;;;;;;;;;;;;;;22.42;68.24;95836.03;220401;263;194208;-59
2021/08/06 03:47:05;;;;;;;;;;;;;;;22.41;68.26;95832.27;220655;263;99019;-57
2021/08/06 03:48:06;;;;;;;;;;;;;;;22.43;68.27;95833.48;220342;262;97114;-56
2021/08/06 03:49:08;;;;;;;;;;;;;;;22.41;68.08;95834.44;220271;263;98928;-60
2021/08/06 03:50:09;;;;;;;;;;;;;;;22.46;67.96;95827.25;219415;263;98887;-60
2021/08/06 03:51:10;;;;;;;;;;;;;;;22.51;67.97;95829.69;219991;264;98956;-60
2021/08/06 03:52:12;;;;;;;;;;;;;;;22.48;67.57;95829.05;221161;262;98933;-60
2021/08/06 03:53:13;;;;;;;;;;;;;;;22.38;67.61;95830.25;221543;262;99046;-60
2021/08/06 03:54:14;;;;;;;;;;;;;;;22.29;67.76;95827.72;222270;261;98955;-59
2021/08/06 03:55:16;;;;;;;;;;;;;;;22.30;67.80;95827.94;222038;261;98934;-58
2021/08/06 03:56:17;;;;;;;;;;;;;;;22.32;67.66;95829.73;222180;261;100226;-60
2021/08/06 03:57:18;;;;;;;;;;;;;;;22.21;67.75;95828.75;222066;261;98987;-61
2021/08/06 03:58:20;;;;;;;;;;;;;;;22.21;67.92;95830.13;222173;260;98938;-53
2021/08/06 03:59:21;;;;;;;;;;;;;;;22.14;67.91;95828.64;221824;262;98885;-58
2021/08/06 04:00:22;;;;;;;;;;;;;;;22.16;67.98;95827.69;221848;262;98951;-60
2021/08/06 04:01:24;;;;;;;;;;;;;;;22.10;68.08;95831.89;222142;262;98935;-57
2021/08/06 04:02:25;;;;;;;;;;;;;;;22.05;68.17;95825.28;221853;262;98933;-60
2021/08/06 04:03:26;;;;;;;;;;;;;;;22.01;68.21;95825.77;221841;261;98993;-58
2021/08/06 04:04:28;;;;;;;;;;;;;;;22.10;68.16;95833.27;222104;261;97992;-59
2021/08/06 04:05:29;;;;;;;;;;;;;;;22.06;68.04;95823.56;222363;261;98033;-58
2021/08/06 04:06:30;;;;;;;;;;;;;;;22.02;68.29;95820.50;221948;262;97973;-61
2021/08/06 04:07:32;;;;;;;;;;;;;;;22.02;68.26;95824.05;221986;260;192027;-57
2021/08/06 04:08:33;;;;;;;;;;;;;;;22.03;68.33;95826.23;222313;261;97052;-60
2021/08/06 04:09:35;;;;;;;;;;;;;;;22.01;68.31;95826.59;222165;261;99396;-59
2021/08/06 04:10:36;;;;;;;;;;;;;;;22.00;68.51;95826.94;222285;261;98939;-58
2021/08/06 04:11:37;;;;;;;;;;;;;;;21.95;68.75;95826.08;222172;261;97536;-59
2021/08/06 04:12:39;;;;;;;;;;;;;;;21.99;68.68;95828.11;222393;261;98037;-56
2021/08/06 04:13:40;;;;;;;;;;;;;;;21.93;68.58;95825.66;222034;261;98023;-59
2021/08/06 04:14:41;;;;;;;;;;;;;;;21.92;68.79;95826.82;221748;260;97265;-56
2021/08/06 04:15:43;;;;;;;;;;;;;;;21.87;68.97;95820.79;221418;262;98934;-58
2021/08/06 04:16:44;;;;;;;;;;;;;;;21.86;69.12;95825.50;220667;263;99528;-59
2021/08/06 04:17:45;;;;;;;;;;;;;;;21.88;69.08;95827.89;219693;264;98987;-57
2021/08/06 04:18:47;;;;;;;;;;;;;;;21.89;69.16;95828.11;219506;264;98031;-58
2021/08/06 04:19:48;;;;;;;;;;;;;;;21.84;69.37;95827.05;219691;264;98150;-56
2021/08/06 04:20:49;;;;;;;;;;;;;;;21.83;69.34;95836.48;218803;265;98013;-61
2021/08/06 04:21:51;;;;;;;;;;;;;;;21.78;69.44;95834.80;218556;265;192544;-60
2021/08/06 04:22:52;;;;;;;;;;;;;;;21.78;69.50;95829.28;218975;265;98989;-59
2021/08/06 04:23:53;;;;;;;;;;;;;;;21.77;69.61;95829.64;218695;265;98926;-59
2021/08/06 04:24:55;;;;;;;;;;;;;;;21.76;69.65;95834.37;218990;265;98983;-61
2021/08/06 04:25:56;;;;;;;;;;;;;;;21.80;69.70;95832.50;218757;265;98130;-58
2021/08/06 04:26:57;;;;;;;;;;;;;;;21.77;69.69;95837.34;219054;265;97992;-59
2021/08/06 04:27:59;;;;;;;;;;;;;;;21.78;69.76;95836.75;218717;264;98021;-59
2021/08/06 04:29:00;;;;;;;;;;;;;;;21.76;69.79;95834.37;218638;265;99109;-60
2021/08/06 04:30:01;;;;;;;;;;;;;;;21.71;69.91;95831.91;219356;264;98927;-61
2021/08/06 04:31:05;;;;;;;;;;;;;;;21.73;69.70;95826.83;221344;262;97987;-59
2021/08/06 04:32:06;;;;;;;;;;;;;;;21.72;69.72;95829.95;221838;262;69436;-60
2021/08/06 04:33:07;;;;;;;;;;;;;;;21.71;69.91;95834.67;221617;262;100273;-60
2021/08/06 04:34:08;;;;;;;;;;;;;;;21.69;69.91;95831.45;221273;262;276923;-59
2021/08/06 04:35:10;;;;;;;;;;;;;;;21.70;69.86;95835.03;221435;262;195610;-60
2021/08/06 04:36:11;;;;;;;;;;;;;;;21.68;69.97;95830.44;221519;262;193138;-60
2021/08/06 04:37:12;;;;;;;;;;;;;;;21.67;69.89;95831.02;221856;262;97991;-57
2021/08/06 04:38:14;;;;;;;;;;;;;;;21.66;69.96;95834.36;221626;261;98934;-58
2021/08/06 04:39:15;;;;;;;;;;;;;;;21.60;70.00;95833.08;221841;262;98799;-57
2021/08/06 04:40:16;;;;;;;;;;;;;;;21.60;70.07;95830.89;221623;262;98933;-56
2021/08/06 04:41:18;;;;;;;;;;;;;;;21.63;70.19;95834.30;221887;262;98929;-59
2021/08/06 04:42:19;;;;;;;;;;;;;;;21.63;70.20;95832.92;221341;262;98103;-58
2021/08/06 04:43:20;;;;;;;;;;;;;;;21.63;70.26;95832.92;221126;262;98012;-59
2021/08/06 04:44:22;;;;;;;;;;;;;;;21.64;70.46;95831.17;221639;262;97759;-60
2021/08/06 04:45:23;;;;;;;;;;;;;;;21.65;70.33;95836.11;221672;262;98921;-56
2021/08/06 04:46:24;;;;;;;;;;;;;;;21.65;70.33;95830.02;221869;262;98876;-57
2021/08/06 04:47:26;;;;;;;;;;;;;;;21.66;70.42;95833.56;221653;262;98153;-60
2021/08/06 04:48:27;;;;;;;;;;;;;;;21.67;70.37;95831.02;221860;262;99147;-61
2021/08/06 04:49:28;;;;;;;;;;;;;;;21.68;70.28;95826.30;221633;262;98012;-60
2021/08/06 04:50:30;;;;;;;;;;;;;;;21.64;70.40;95834.52;221533;262;98019;-56
2021/08/06 04:51:31;;;;;;;;;;;;;;;21.63;70.38;95834.30;221609;262;96999;-58
2021/08/06 04:52:32;;;;;;;;;;;;;;;21.62;70.29;95838.22;221634;262;98925;-61
2021/08/06 04:53:34;;;;;;;;;;;;;;;21.61;70.36;95833.87;221755;262;97986;-57
2021/08/06 04:54:35;;;;;;;;;;;;;;;21.62;70.36;95835.47;221593;262;98032;-59
2021/08/06 04:55:36;;;;;;;;;;;;;;;21.64;70.38;95835.89;221744;261;98011;-59
2021/08/06 04:56:38;;;;;;;;;;;;;;;21.61;70.54;95840.77;221657;262;97959;-57
2021/08/06 04:57:39;;;;;;;;;;;;;;;21.55;70.88;95833.92;221494;261;98937;-60
2021/08/06 04:58:41;;;;;;;;;;;;;;;21.50;71.01;95839.74;221721;262;98933;-60
2021/08/06 04:59:42;;;;;;;;;;;;;;;21.44;71.10;95839.21;221227;261;98900;-60
2021/08/06 05:00:44;;;;;;;;;;;;;;;21.44;71.10;95839.21;221693;262;98873;-61
2021/08/06 05:01:45;;;;;;;;;;;;;;;21.61;70.85;95838.80;221505;262;99039;-60
2021/08/06 05:02:46;;;;;;;;;;;;;;;21.80;70.00;95837.19;221886;262;98951;-61
2021/08/06 05:03:48;;;;;;;;;;;;;;;21.97;69.66;95833.20;221491;262;98949;-55
2021/08/06 05:04:49;;;;;;;;;;;;;;;22.08;69.73;95836.41;221513;262;193829;-64
2021/08/06 05:05:50;;;;;;;;;;;;;;;22.01;69.94;95838.19;221808;262;98950;-65
2021/08/06 05:06:52;;;;;;;;;;;;;;;22.06;70.48;95836.53;221612;262;98785;-65
2021/08/06 05:07:53;;;;;;;;;;;;;;;21.97;70.65;95845.03;221870;261;99058;-63
2021/08/06 05:08:54;;;;;;;;;;;;;;;22.05;70.18;95843.21;221636;262;98999;-63
2021/08/06 05:09:56;;;;;;;;;;;;;;;22.07;70.13;95840.91;221889;262;98945;-62
2021/08/06 05:10:57;;;;;;;;;;;;;;;22.05;69.87;95843.21;221666;262;99661;-61
2021/08/06 05:11:58;;;;;;;;;;;;;;;22.08;70.03;95841.92;221578;262;98887;-61
2021/08/06 05:13:00;;;;;;;;;;;;;;;22.13;69.75;95840.84;221848;262;97975;-62
2021/08/06 05:14:01;;;;;;;;;;;;;;;22.24;69.56;95837.70;221335;262;98860;-61
2021/08/06 05:15:02;;;;;;;;;;;;;;;22.25;69.62;95847.57;221536;262;98959;-61
2021/08/06 05:16:04;;;;;;;;;;;;;;;22.30;69.52;95844.50;221365;262;98898;-61
2021/08/06 05:17:05;;;;;;;;;;;;;;;22.32;69.46;95849.06;221932;262;99106;-61
2021/08/06 05:18:06;;;;;;;;;;;;;;;22.28;69.37;95846.83;221265;261;98959;-61
2021/08/06 05:19:08;;;;;;;;;;;;;;;22.35;69.35;95850.31;221398;262;97953;-59